Thunder radar more information blitzortung!


Radar de pluja more information rain snow radar


Visita la nostra xarxa de llocs de meteo:

Template documentation
and downloads

And another site



No particular awareness of the weather is required.    There are no Weather-warnings

Pagina Historial Weather Underground text

Diari Resum May 31, 2016 Unitats:  Mètric    Imperial   Tant
« Previous Dia
SegĂźent Dia »
Diari Setmana Mensual Anual Personalitzada
  Maxima: Minima: Media:
Temperatura: 25.9 °C 12.6 °C 19.4 °C
Punt de rosada: 11.4 °C 7.2 °C 9.9 °C
Humitat: 77 % 37 % 56 %
Wind Speed: 22.2 km/h 0.0 km/h 7.8 km/h
RĂ fegues de vent: 22.2 km/h - -
Vent:- - SSE
Pression baro: 1021.9 hPa 1016.8 hPa -
Precipitacions: 0.0 mm    
Historical Graphs
 
 
Dades de taula per May 31, 2016
Temps Temperatura Punt de rosada Pression baro Vent Wind Speed RĂ fegues de vent Humitat Rainfall Rate (Hourly)
00:00 16.0 °C 11.2 °C 1018.8 hPa East 5.6 km/h 5.6 km/h 73 % 0.0 mm
00:05 15.9 °C 11.1 °C 1018.8 hPa SSE 7.4 km/h 7.4 km/h 73 % 0.0 mm
00:15 13.1 °C 8.8 °C 1018.8 hPa WSW 3.2 km/h 3.2 km/h 75 % 0.0 mm
00:35 13.3 °C 9.2 °C 1018.8 hPa Calm   1.6 km/h 76 % 0.0 mm
00:45 13.1 °C 9.2 °C 1018.8 hPa WNW 3.2 km/h 3.2 km/h 77 % 0.0 mm
00:55 12.8 °C 8.7 °C 1018.8 hPa Calm   3.2 km/h 76 % 0.0 mm
01:05 12.6 °C 8.5 °C 1018.8 hPa Calm   1.6 km/h 76 % 0.0 mm
01:15 12.6 °C 7.9 °C 1018.8 hPa Calm   1.6 km/h 73 % 0.0 mm
01:25 12.8 °C 7.7 °C 1019.9 hPa WNW 1.6 km/h 1.6 km/h 71 % 0.0 mm
01:35 12.8 °C 7.3 °C 1019.9 hPa WSW 1.6 km/h 1.6 km/h 69 % 0.0 mm
01:45 12.7 °C 7.2 °C 1019.9 hPa Calm   1.6 km/h 69 % 0.0 mm
01:55 12.7 °C 7.2 °C 1019.9 hPa WSW 1.6 km/h 4.8 km/h 69 % 0.0 mm
02:05 13.0 °C 7.2 °C 1019.9 hPa WSW 1.6 km/h   68 % 0.0 mm
02:15 13.3 °C 7.3 °C 1019.9 hPa SSW 1.6 km/h 3.2 km/h 67 % 0.0 mm
02:25 13.4 °C 7.4 °C 1019.9 hPa Calm   4.8 km/h 67 % 0.0 mm
02:35 13.5 °C 7.3 °C 1019.9 hPa WSW 1.6 km/h 3.2 km/h 66 % 0.0 mm
02:45 13.7 °C 7.4 °C 1019.9 hPa SW 1.6 km/h 3.2 km/h 66 % 0.0 mm
02:55 14.1 °C 7.6 °C 1019.9 hPa SW 3.2 km/h 4.8 km/h 65 % 0.0 mm
03:05 14.4 °C 7.7 °C 1019.9 hPa WSW 1.6 km/h 12.9 km/h 64 % 0.0 mm
03:15 14.6 °C 7.9 °C 1019.9 hPa WSW 8.0 km/h 8.0 km/h 64 % 0.0 mm
03:25 14.9 °C 7.9 °C 1019.9 hPa SW 4.8 km/h 6.4 km/h 63 % 0.0 mm
03:35 15.3 °C 8.1 °C 1019.9 hPa SW 4.8 km/h 6.4 km/h 62 % 0.0 mm
03:45 16.0 °C 8.7 °C 1019.9 hPa North 3.2 km/h 6.4 km/h 62 % 0.0 mm
04:05 16.6 °C 8.8 °C 1019.9 hPa WNW 4.8 km/h 8.0 km/h 60 % 0.0 mm
04:15 17.0 °C 8.9 °C 1019.9 hPa Calm   4.8 km/h 59 % 0.0 mm
04:25 17.4 °C 9.1 °C 1019.9 hPa NW 1.6 km/h 6.4 km/h 58 % 0.0 mm
04:35 17.8 °C 9.2 °C 1019.9 hPa WSW 3.2 km/h 6.4 km/h 57 % 0.0 mm
04:45 18.5 °C 9.8 °C 1019.9 hPa NW 3.2 km/h 6.4 km/h 57 % 0.0 mm
04:55 19.0 °C 9.5 °C 1019.9 hPa West 4.8 km/h 8.0 km/h 54 % 0.0 mm
05:05 19.1 °C 9.6 °C 1019.9 hPa SW 4.8 km/h 6.4 km/h 54 % 0.0 mm
05:15 19.2 °C 9.4 °C 1019.9 hPa West 4.8 km/h 6.4 km/h 53 % 0.0 mm
05:25 19.8 °C 9.7 °C 1019.9 hPa WNW 4.8 km/h 4.8 km/h 52 % 0.0 mm
10:27 19.8 °C 9.7 °C 1019.9 hPa SW 11.1 km/h 11.1 km/h 52 % 0.0 mm
10:32 19.8 °C 9.7 °C 1019.9 hPa West 7.4 km/h 7.4 km/h 52 % 0.0 mm
10:37 19.8 °C 9.7 °C 1019.9 hPa SW 7.4 km/h 7.4 km/h 52 % 0.0 mm
10:42 19.8 °C 9.7 °C 1019.9 hPa West 7.4 km/h 7.4 km/h 52 % 0.0 mm
10:47 20.0 °C 8.9 °C 1019.9 hPa SW 16.7 km/h 16.7 km/h 49 % 0.0 mm
10:52 20.1 °C 9.1 °C 1019.9 hPa WSW 7.4 km/h 7.4 km/h 49 % 0.0 mm
10:57 20.3 °C 9.2 °C 1019.9 hPa South 11.1 km/h 11.1 km/h 49 % 0.0 mm
11:02 20.4 °C 9.3 °C 1019.9 hPa WNW 5.6 km/h 6.4 km/h 49 % 0.0 mm
11:07 20.4 °C 9.3 °C 1019.9 hPa West 11.1 km/h 11.1 km/h 49 % 0.0 mm
11:12 20.5 °C 9.4 °C 1019.9 hPa WSW 11.1 km/h 11.1 km/h 49 % 0.0 mm
11:17 20.8 °C 9.7 °C 1019.9 hPa SSW 6.1 km/h 6.1 km/h 49 % 0.0 mm
11:22 21.3 °C 9.8 °C 1019.9 hPa WNW 5.6 km/h 5.6 km/h 48 % 0.0 mm
11:27 21.6 °C 10.1 °C 1019.9 hPa WNW 11.1 km/h 11.1 km/h 48 % 0.0 mm
11:32 21.7 °C 10.2 °C 1019.9 hPa NE 5.6 km/h 5.6 km/h 48 % 0.0 mm
11:37 22.0 °C 10.2 °C 1019.9 hPa WNW 7.4 km/h 7.4 km/h 47 % 0.0 mm
11:47 22.1 °C 9.6 °C 1019.9 hPa West 9.3 km/h 9.3 km/h 45 % 0.0 mm
11:52 22.0 °C 9.5 °C 1019.9 hPa SW 9.3 km/h 9.3 km/h 45 % 0.0 mm
11:57 22.8 °C 10.6 °C 1019.9 hPa West 6.9 km/h 6.9 km/h 46 % 0.0 mm
12:02 22.2 °C 9.7 °C 1019.9 hPa WNW 5.6 km/h 5.6 km/h 45 % 0.0 mm
12:12 22.6 °C 9.7 °C 1019.9 hPa SW 11.1 km/h 11.1 km/h 44 % 0.0 mm
12:17 22.6 °C 10.1 °C 1019.9 hPa SW 5.6 km/h 5.6 km/h 45 % 0.0 mm
12:22 22.9 °C 10.3 °C 1019.9 hPa WSW 5.8 km/h 6.1 km/h 45 % 0.0 mm
12:27 23.3 °C 10.0 °C 1019.9 hPa NW 5.6 km/h 5.6 km/h 43 % 0.0 mm
12:32 22.9 °C 10.0 °C 1019.9 hPa West 11.1 km/h 11.1 km/h 44 % 0.0 mm
12:37 22.9 °C 10.0 °C 1019.9 hPa ENE 5.6 km/h 5.6 km/h 44 % 0.0 mm
12:42 23.1 °C 9.5 °C 1019.9 hPa NW 11.1 km/h 11.1 km/h 42 % 0.0 mm
12:47 23.3 °C 9.7 °C 1019.9 hPa SW 5.6 km/h 5.6 km/h 42 % 0.0 mm
12:52 23.6 °C 9.6 °C 1019.9 hPa SSE 7.4 km/h 7.4 km/h 41 % 0.0 mm
12:57 23.4 °C 9.0 °C 1019.9 hPa SE 9.0 km/h 9.0 km/h 40 % 0.0 mm
13:02 23.4 °C 9.4 °C 1018.8 hPa WSW 3.9 km/h 3.9 km/h 41 % 0.0 mm
13:07 23.5 °C 9.1 °C 1018.8 hPa West 9.3 km/h 9.3 km/h 40 % 0.0 mm
13:12 23.3 °C 8.9 °C 1018.8 hPa NNE 5.6 km/h 5.6 km/h 40 % 0.0 mm
13:17 23.3 °C 8.9 °C 1018.8 hPa NNE 5.6 km/h 5.6 km/h 40 % 0.0 mm
13:22 23.4 °C 9.0 °C 1018.8 hPa SW 9.3 km/h 9.3 km/h 40 % 0.0 mm
13:27 23.6 °C 9.2 °C 1018.8 hPa ENE 7.4 km/h 7.4 km/h 40 % 0.0 mm
13:32 23.8 °C 9.4 °C 1018.8 hPa WNW 3.7 km/h 3.7 km/h 40 % 0.0 mm
13:37 24.4 °C 9.6 °C 1018.8 hPa West 9.3 km/h 9.3 km/h 39 % 0.0 mm
13:42 24.4 °C 9.6 °C 1018.8 hPa ENE 11.1 km/h 11.1 km/h 39 % 0.0 mm
13:47 24.4 °C 9.6 °C 1018.8 hPa WNW 9.3 km/h 9.3 km/h 39 % 0.0 mm
13:52 23.7 °C 8.6 °C 1018.8 hPa ENE 7.4 km/h 7.4 km/h 38 % 0.0 mm
13:57 23.7 °C 8.6 °C 1018.8 hPa ENE 3.7 km/h 3.7 km/h 38 % 0.0 mm
14:02 23.7 °C 8.6 °C 1018.8 hPa SW 5.8 km/h 5.8 km/h 38 % 0.0 mm
14:07 25.0 °C 9.3 °C 1018.8 hPa South 7.4 km/h 7.4 km/h 37 % 0.0 mm
14:12 25.0 °C 9.3 °C 1018.8 hPa SW 3.7 km/h 3.7 km/h 37 % 0.0 mm
14:17 25.9 °C 10.1 °C 1018.8 hPa ESE 7.4 km/h 7.4 km/h 37 % 0.0 mm
14:22 23.9 °C 9.5 °C 1018.8 hPa East 13.0 km/h 13.0 km/h 40 % 0.0 mm
14:27 22.9 °C 8.9 °C 1018.8 hPa East 14.8 km/h 14.8 km/h 41 % 0.0 mm
14:32 22.6 °C 9.1 °C 1018.8 hPa ESE 18.5 km/h 18.5 km/h 42 % 0.0 mm
14:37 22.6 °C 9.1 °C 1018.8 hPa ESE 18.5 km/h 18.5 km/h 42 % 0.0 mm
14:42 22.2 °C 9.0 °C 1018.8 hPa ESE 22.2 km/h 22.2 km/h 43 % 0.0 mm
14:47 22.2 °C 9.0 °C 1017.8 hPa ESE 14.8 km/h 14.8 km/h 43 % 0.0 mm
14:52 22.2 °C 9.4 °C 1017.8 hPa ESE 16.4 km/h 16.4 km/h 44 % 0.0 mm
14:57 22.2 °C 9.4 °C 1017.8 hPa East 13.0 km/h 13.0 km/h 44 % 0.0 mm
15:02 22.2 °C 9.4 °C 1017.8 hPa ESE 17.5 km/h 17.5 km/h 44 % 0.0 mm
15:07 22.0 °C 9.5 °C 1017.8 hPa East 13.0 km/h 13.0 km/h 45 % 0.0 mm
15:12 21.7 °C 9.6 °C 1017.8 hPa ESE 14.8 km/h 14.8 km/h 46 % 0.0 mm
15:17 21.7 °C 9.6 °C 1017.8 hPa ESE 18.0 km/h 18.0 km/h 46 % 0.0 mm
15:22 21.7 °C 9.6 °C 1017.8 hPa ESE 14.8 km/h 14.8 km/h 46 % 0.0 mm
15:27 21.7 °C 9.6 °C 1017.8 hPa SE 7.4 km/h 7.4 km/h 46 % 0.0 mm
15:32 21.7 °C 9.6 °C 1016.8 hPa NE 13.0 km/h 13.0 km/h 46 % 0.0 mm
15:37 21.7 °C 9.6 °C 1016.8 hPa ESE 13.0 km/h 13.0 km/h 46 % 0.0 mm
15:42 21.7 °C 9.6 °C 1016.8 hPa ESE 6.9 km/h 6.9 km/h 46 % 0.0 mm
15:47 21.7 °C 9.6 °C 1016.8 hPa ESE 7.4 km/h 7.4 km/h 46 % 0.0 mm
15:52 22.4 °C 10.2 °C 1016.8 hPa SW 7.4 km/h 7.4 km/h 46 % 0.0 mm
15:57 22.8 °C 10.6 °C 1016.8 hPa ESE 6.1 km/h 6.1 km/h 46 % 0.0 mm
16:02 22.8 °C 10.6 °C 1016.8 hPa SSE 13.0 km/h 13.0 km/h 46 % 0.0 mm
16:07 22.8 °C 10.6 °C 1016.8 hPa East 13.0 km/h 13.0 km/h 46 % 0.0 mm
16:12 22.8 °C 10.6 °C 1016.8 hPa WSW 5.6 km/h 5.6 km/h 46 % 0.0 mm
16:17 22.8 °C 10.6 °C 1017.8 hPa WSW 7.4 km/h 7.4 km/h 46 % 0.0 mm
16:22 22.8 °C 10.6 °C 1017.8 hPa SSW 7.4 km/h 7.4 km/h 46 % 0.0 mm
16:28 22.8 °C 10.6 °C 1017.8 hPa SSE 3.7 km/h 3.9 km/h 46 % 0.0 mm
16:33 22.8 °C 10.6 °C 1017.8 hPa SSW 5.6 km/h 5.6 km/h 46 % 0.0 mm
16:43 23.2 °C 10.6 °C 1017.8 hPa South 1.9 km/h 1.9 km/h 45 % 0.0 mm
16:48 23.2 °C 10.6 °C 1017.8 hPa WNW 5.6 km/h 5.6 km/h 45 % 0.0 mm
16:53 23.2 °C 10.6 °C 1017.8 hPa WSW 5.6 km/h 5.6 km/h 45 % 0.0 mm
16:58 23.2 °C 10.6 °C 1017.8 hPa South 3.7 km/h 3.7 km/h 45 % 0.0 mm
17:03 23.2 °C 10.6 °C 1017.8 hPa WNW 3.7 km/h   45 % 0.0 mm
17:08 23.2 °C 10.6 °C 1017.8 hPa SW 7.4 km/h 7.4 km/h 45 % 0.0 mm
17:13 23.2 °C 10.6 °C 1017.8 hPa West 5.8 km/h 5.8 km/h 45 % 0.0 mm
17:18 23.2 °C 10.6 °C 1017.8 hPa SW 7.4 km/h 7.4 km/h 45 % 0.0 mm
17:23 23.2 °C 10.6 °C 1017.8 hPa SSW 7.4 km/h 7.4 km/h 45 % 0.0 mm
17:28 23.2 °C 10.6 °C 1017.8 hPa WSW 9.3 km/h 9.3 km/h 45 % 0.0 mm
17:33 21.7 °C 9.6 °C 1017.8 hPa WSW 5.6 km/h 5.6 km/h 46 % 0.0 mm
17:38 21.7 °C 9.6 °C 1017.8 hPa SW 5.6 km/h 5.6 km/h 46 % 0.0 mm
17:43 21.6 °C 9.8 °C 1017.8 hPa NNE 1.9 km/h 2.3 km/h 47 % 0.0 mm
17:48 21.6 °C 9.8 °C 1018.8 hPa ENE 7.4 km/h 7.4 km/h 47 % 0.0 mm
17:53 21.0 °C 9.3 °C 1018.8 hPa NNE 18.5 km/h 18.5 km/h 47 % 0.0 mm
17:58 19.5 °C 9.4 °C 1018.8 hPa ENE 16.7 km/h 16.7 km/h 52 % 0.0 mm
18:03 18.6 °C 10.2 °C 1018.8 hPa NNW 14.8 km/h 14.8 km/h 58 % 0.0 mm
18:08 18.2 °C 10.6 °C 1018.8 hPa East 14.0 km/h 14.0 km/h 61 % 0.0 mm
18:13 18.1 °C 10.7 °C 1018.8 hPa NNE 14.8 km/h 14.8 km/h 62 % 0.0 mm
18:18 18.0 °C 10.8 °C 1018.8 hPa NNE 13.0 km/h 13.0 km/h 63 % 0.0 mm
18:23 18.3 °C 11.4 °C 1018.8 hPa East 9.7 km/h 9.7 km/h 64 % 0.0 mm
18:28 18.0 °C 10.8 °C 1018.8 hPa NNE 11.1 km/h 11.1 km/h 63 % 0.0 mm
18:33 18.0 °C 10.8 °C 1019.9 hPa East 13.0 km/h 13.0 km/h 63 % 0.0 mm
18:38 17.8 °C 10.7 °C 1019.9 hPa SSE 13.0 km/h 13.0 km/h 63 % 0.0 mm
18:43 17.8 °C 10.7 °C 1019.9 hPa ENE 18.5 km/h 18.5 km/h 63 % 0.0 mm
18:48 17.7 °C 10.8 °C 1019.9 hPa ENE 22.2 km/h 22.2 km/h 64 % 0.0 mm
18:58 17.7 °C 10.8 °C 1019.9 hPa ESE 11.9 km/h 11.9 km/h 64 % 0.0 mm
19:03 18.0 °C 10.8 °C 1018.8 hPa ESE 9.3 km/h 9.3 km/h 63 % 0.0 mm
19:08 18.0 °C 10.8 °C 1018.8 hPa ESE 18.5 km/h 18.5 km/h 63 % 0.0 mm
19:13 17.7 °C 10.8 °C 1018.8 hPa ENE 16.7 km/h 16.7 km/h 64 % 0.0 mm
19:18 17.7 °C 10.8 °C 1018.8 hPa East 13.0 km/h 13.0 km/h 64 % 0.0 mm
19:23 17.7 °C 10.8 °C 1018.8 hPa ENE 13.0 km/h 13.0 km/h 64 % 0.0 mm
19:28 17.7 °C 10.8 °C 1018.8 hPa ENE 9.3 km/h 9.3 km/h 64 % 0.0 mm
19:33 17.7 °C 10.8 °C 1019.9 hPa ENE 13.0 km/h 13.0 km/h 64 % 0.0 mm
19:38 17.7 °C 10.8 °C 1019.9 hPa ENE 13.0 km/h 13.0 km/h 64 % 0.0 mm
19:43 17.7 °C 10.8 °C 1019.9 hPa ENE 9.3 km/h 9.3 km/h 64 % 0.0 mm
19:48 17.7 °C 10.8 °C 1019.9 hPa ENE 6.9 km/h 6.9 km/h 64 % 0.0 mm
19:53 17.7 °C 10.8 °C 1019.9 hPa East 11.4 km/h 11.4 km/h 64 % 0.0 mm
19:58 17.7 °C 10.8 °C 1019.9 hPa ENE 5.6 km/h 5.6 km/h 64 % 0.0 mm
20:03 18.0 °C 11.1 °C 1019.9 hPa NNE 5.6 km/h 5.6 km/h 64 % 0.0 mm
20:08 17.9 °C 11.2 °C 1019.9 hPa ENE 7.4 km/h 7.4 km/h 65 % 0.0 mm
20:13 17.9 °C 11.0 °C 1019.9 hPa East 9.5 km/h 9.5 km/h 64 % 0.0 mm
20:24 17.8 °C 10.9 °C 1019.9 hPa East 5.6 km/h 5.6 km/h 64 % 0.0 mm
20:25 15.7 °C 10.7 °C 1019.9 hPa NNE 1.6 km/h 3.2 km/h 72 % 0.0 mm
20:29 17.8 °C 10.9 °C 1019.9 hPa NNE 7.4 km/h 7.4 km/h 64 % 0.0 mm
20:34 17.8 °C 10.9 °C 1019.9 hPa ESE 9.3 km/h 9.3 km/h 64 % 0.0 mm
20:39 17.8 °C 10.9 °C 1019.9 hPa ENE 9.3 km/h 9.3 km/h 64 % 0.0 mm
20:44 17.8 °C 10.9 °C 1019.9 hPa East 9.3 km/h 9.3 km/h 64 % 0.0 mm
20:49 17.8 °C 10.9 °C 1019.9 hPa SE 11.1 km/h 11.1 km/h 64 % 0.0 mm
20:54 17.8 °C 10.9 °C 1019.9 hPa ENE 13.0 km/h 13.0 km/h 64 % 0.0 mm
20:59 17.8 °C 10.9 °C 1019.9 hPa SE 11.9 km/h 11.9 km/h 64 % 0.0 mm
21:04 17.8 °C 10.9 °C 1018.8 hPa ESE 7.4 km/h 7.4 km/h 64 % 0.0 mm
21:14 17.8 °C 10.9 °C 1018.8 hPa ENE 5.6 km/h 5.6 km/h 64 % 0.0 mm
21:19 17.1 °C 10.7 °C 1019.9 hPa ESE 7.4 km/h 7.4 km/h 66 % 0.0 mm
21:24 17.1 °C 10.7 °C 1019.9 hPa ENE 5.6 km/h   66 % 0.0 mm
21:29 17.1 °C 10.7 °C 1019.9 hPa ENE 5.6 km/h 5.6 km/h 66 % 0.0 mm
21:39 17.1 °C 10.7 °C 1019.9 hPa East 5.6 km/h 5.6 km/h 66 % 0.0 mm
21:49 17.1 °C 10.7 °C 1019.9 hPa NE 5.6 km/h 5.6 km/h 66 % 0.0 mm
21:54 17.1 °C 10.7 °C 1019.9 hPa ESE 4.7 km/h 4.7 km/h 66 % 0.0 mm
21:59 16.9 °C 11.2 °C 1019.9 hPa ENE 3.9 km/h 3.9 km/h 69 % 0.0 mm
22:04 16.9 °C 11.2 °C 1019.9 hPa ENE 3.7 km/h 3.7 km/h 69 % 0.0 mm
22:09 16.9 °C 11.2 °C 1019.9 hPa East 6.1 km/h 6.1 km/h 69 % 0.0 mm
22:14 16.9 °C 11.2 °C 1019.9 hPa NE 4.7 km/h 4.7 km/h 69 % 0.0 mm
22:19 16.8 °C 11.3 °C 1019.9 hPa ENE 3.9 km/h 3.9 km/h 70 % 0.0 mm
22:24 16.8 °C 11.3 °C 1019.9 hPa ENE 6.1 km/h 6.1 km/h 70 % 0.0 mm
22:29 16.8 °C 11.3 °C 1019.9 hPa NE 6.4 km/h 6.4 km/h 70 % 0.0 mm
22:39 16.8 °C 11.3 °C 1020.9 hPa ENE 3.9 km/h 3.9 km/h 70 % 0.0 mm
22:44 16.8 °C 11.3 °C 1020.9 hPa East 6.4 km/h 6.4 km/h 70 % 0.0 mm
22:54 16.8 °C 11.3 °C 1020.9 hPa NE 7.4 km/h 7.4 km/h 70 % 0.0 mm
22:59 16.8 °C 11.3 °C 1020.9 hPa ESE 7.4 km/h 7.4 km/h 70 % 0.0 mm
23:04 16.8 °C 11.3 °C 1020.9 hPa East 3.7 km/h 4.2 km/h 70 % 0.0 mm
23:09 16.8 °C 11.1 °C 1020.9 hPa East 5.6 km/h 5.6 km/h 69 % 0.0 mm
23:14 16.8 °C 11.1 °C 1020.9 hPa NE 5.6 km/h 5.6 km/h 69 % 0.0 mm
23:19 16.8 °C 11.1 °C 1021.9 hPa ENE 5.6 km/h 5.6 km/h 69 % 0.0 mm
23:29 16.7 °C 11.2 °C 1021.9 hPa ENE 5.8 km/h 5.8 km/h 70 % 0.0 mm
23:34 16.7 °C 11.2 °C 1021.9 hPa ESE 6.4 km/h 6.4 km/h 70 % 0.0 mm
23:45 16.7 °C 11.2 °C 1021.9 hPa ENE 1.6 km/h 4.8 km/h 70 % 0.0 mm
23:50 16.7 °C 11.2 °C 1020.9 hPa ENE 3.7 km/h 3.7 km/h 70 % 0.0 mm
23:55 16.6 °C 11.1 °C 1020.9 hPa ENE 3.7 km/h 3.7 km/h 70 % 0.0 mm
Meteo Sesrovires
Elogis d' Weather Underground - 3.5 mb

Guio original per  Jim McMurry - jmcmurry@mwt.net Adaptat per a la plantilla per  Wim van der Kuil - Leuven-Template.eu

Trobareu la nostra informacio del temps tambe a:

Weather Underground

AWEKAS